createdAt,value
2022-08-16T00:00:47.687Z,19.17
2022-08-16T00:05:56.014Z,19.28
2022-08-16T00:11:02.038Z,19.33
2022-08-16T00:16:09.854Z,19.52
2022-08-16T00:21:16.363Z,19.58
2022-08-16T00:26:25.375Z,19.56
2022-08-16T00:31:33.344Z,19.6
2022-08-16T00:36:40.539Z,19.54
2022-08-16T00:41:48.243Z,19.75
2022-08-16T00:46:56.854Z,20.0
2022-08-16T00:52:04.197Z,20.01
2022-08-16T00:57:11.465Z,20.0
2022-08-16T01:02:19.090Z,20.03
2022-08-16T01:07:26.892Z,20.1
2022-08-16T01:12:34.806Z,20.47
2022-08-16T01:17:42.220Z,20.74
2022-08-16T01:22:49.910Z,20.96
2022-08-16T01:27:57.415Z,20.97
2022-08-16T01:33:05.953Z,20.92
2022-08-16T01:38:14.282Z,20.84
2022-08-16T01:43:20.537Z,20.72
2022-08-16T01:48:28.378Z,20.66
2022-08-16T01:53:35.926Z,20.64
2022-08-16T01:58:44.202Z,20.64
2022-08-16T02:03:51.935Z,20.62
2022-08-16T02:09:00.123Z,20.62
2022-08-16T02:14:08.088Z,20.69
2022-08-16T02:19:16.336Z,20.7
2022-08-16T02:24:24.269Z,20.75
2022-08-16T02:29:32.036Z,20.8
2022-08-16T02:34:39.749Z,20.8
2022-08-16T02:39:46.953Z,20.81
2022-08-16T02:44:55.346Z,20.82
2022-08-16T02:50:02.544Z,20.8
2022-08-16T02:55:10.291Z,20.9
2022-08-16T03:00:19.953Z,20.94
2022-08-16T03:05:26.625Z,21.03
2022-08-16T03:10:36.006Z,20.98
2022-08-16T03:15:43.922Z,20.98
2022-08-16T03:20:51.515Z,21.0
2022-08-16T03:25:58.617Z,21.0
2022-08-16T03:31:06.029Z,20.99
2022-08-16T03:36:13.662Z,20.8
2022-08-16T03:41:21.516Z,20.67
2022-08-16T03:46:29.115Z,20.72
2022-08-16T03:51:36.317Z,20.79
2022-08-16T03:56:44.958Z,20.92
2022-08-16T04:01:53.244Z,20.98
2022-08-16T04:07:00.094Z,20.98
2022-08-16T04:12:07.294Z,20.9
2022-08-16T04:17:14.889Z,20.76
2022-08-16T04:22:23.566Z,20.92
2022-08-16T04:27:30.777Z,21.16
2022-08-16T04:32:37.375Z,21.08
2022-08-16T04:37:44.586Z,20.97
2022-08-16T04:42:51.740Z,20.84
2022-08-16T04:47:58.327Z,20.76
2022-08-16T04:53:05.731Z,20.86
2022-08-16T04:58:12.806Z,20.78
2022-08-16T05:03:21.358Z,20.69
2022-08-16T05:08:29.643Z,20.65
2022-08-16T05:13:36.259Z,20.64
2022-08-16T05:18:44.570Z,20.64
2022-08-16T05:23:52.579Z,20.68
2022-08-16T05:29:00.492Z,20.72
2022-08-16T05:34:07.609Z,20.72
2022-08-16T05:39:16.431Z,20.76
2022-08-16T05:44:23.834Z,20.78
2022-08-16T05:49:32.598Z,20.76
2022-08-16T05:54:40.472Z,20.8
2022-08-16T05:59:47.883Z,20.65
2022-08-16T06:04:55.189Z,20.56
2022-08-16T06:10:01.814Z,20.43
2022-08-16T06:15:09.029Z,19.43
2022-08-16T06:20:16.834Z,20.11
2022-08-16T06:25:24.289Z,20.75
2022-08-16T06:30:31.274Z,21.34
2022-08-16T06:35:39.148Z,21.83
2022-08-16T06:40:48.019Z,22.2
2022-08-16T06:45:57.244Z,22.54
2022-08-16T06:51:05.195Z,22.9
2022-08-16T06:56:13.390Z,23.14
2022-08-16T07:01:21.457Z,23.28
2022-08-16T07:06:29.374Z,23.46
2022-08-16T07:11:37.369Z,23.66
2022-08-16T07:16:44.975Z,23.84
2022-08-16T07:21:53.296Z,24.01
2022-08-16T07:27:00.780Z,24.22
2022-08-16T07:32:08.530Z,24.26
2022-08-16T07:37:16.410Z,24.43
2022-08-16T07:42:23.213Z,25.01
2022-08-16T07:47:30.167Z,25.26
2022-08-16T07:52:38.044Z,25.84
2022-08-16T07:57:43.899Z,25.96
2022-08-16T08:02:51.438Z,25.68
2022-08-16T08:07:58.273Z,25.19
2022-08-16T08:13:04.860Z,24.94
2022-08-16T08:18:12.741Z,25.04
2022-08-16T08:23:19.974Z,24.84
2022-08-16T08:28:27.320Z,25.24
2022-08-16T08:33:34.965Z,26.42
2022-08-16T08:38:42.925Z,27.98
2022-08-16T08:43:49.367Z,29.42
2022-08-16T08:48:56.883Z,29.31
2022-08-16T08:54:05.095Z,29.05
2022-08-16T08:59:12.214Z,29.35
2022-08-16T09:04:20.185Z,29.46
2022-08-16T09:09:26.618Z,28.76
2022-08-16T09:14:33.211Z,28.82
2022-08-16T09:19:41.706Z,28.69
2022-08-16T09:24:55.211Z,29.02
2022-08-16T09:30:03.256Z,30.08
2022-08-16T09:35:10.938Z,30.72
2022-08-16T09:40:19.161Z,31.03
2022-08-16T09:45:26.721Z,30.9
2022-08-16T09:50:33.943Z,30.49
2022-08-16T09:55:40.411Z,30.04
2022-08-16T10:00:55.865Z,29.22
2022-08-16T10:06:03.098Z,29.61
2022-08-16T10:11:11.288Z,29.24
2022-08-16T10:16:19.151Z,28.36
2022-08-16T10:21:27.766Z,28.49
2022-08-16T10:26:35.094Z,28.24
2022-08-16T10:31:45.211Z,28.26
2022-08-16T10:36:54.702Z,28.08
2022-08-16T10:42:02.596Z,28.3
2022-08-16T10:47:11.441Z,28.46
2022-08-16T10:52:18.713Z,28.56
2022-08-16T10:57:26.677Z,29.3
2022-08-16T11:02:33.818Z,30.16
2022-08-16T11:07:41.482Z,30.69
2022-08-16T11:12:48.520Z,30.52
2022-08-16T11:17:56.646Z,31.4
2022-08-16T11:23:04.519Z,33.29
2022-08-16T11:28:12.250Z,34.54
2022-08-16T11:33:19.575Z,34.97
2022-08-16T11:38:27.418Z,35.7
2022-08-16T11:43:34.771Z,36.24
2022-08-16T11:48:41.222Z,34.33
2022-08-16T11:53:50.518Z,33.0
2022-08-16T11:58:59.293Z,31.75
2022-08-16T12:04:07.409Z,32.22
2022-08-16T12:09:15.649Z,34.63
2022-08-16T12:14:22.911Z,36.13
2022-08-16T12:19:30.797Z,35.94
2022-08-16T12:24:39.127Z,36.18
2022-08-16T12:29:48.075Z,36.28
2022-08-16T12:34:54.971Z,35.24
2022-08-16T12:40:02.208Z,32.79
2022-08-16T12:45:09.526Z,31.6
2022-08-16T12:50:18.319Z,31.4
2022-08-16T12:55:25.658Z,31.97
2022-08-16T13:00:32.874Z,32.26
2022-08-16T13:05:40.698Z,31.35
2022-08-16T13:10:49.048Z,31.47
2022-08-16T13:15:56.721Z,31.96
2022-08-16T13:21:05.433Z,33.02
2022-08-16T13:26:13.979Z,31.75
2022-08-16T13:31:21.178Z,33.74
2022-08-16T13:36:28.953Z,34.63
2022-08-16T13:41:36.217Z,33.22
2022-08-16T13:46:43.681Z,35.8
2022-08-16T13:51:50.618Z,37.4
2022-08-16T13:56:58.796Z,38.97
2022-08-16T14:02:06.294Z,40.32
2022-08-16T14:07:13.430Z,40.16
2022-08-16T14:12:20.694Z,40.95
2022-08-16T14:17:28.559Z,39.92
2022-08-16T14:22:36.881Z,39.43
2022-08-16T14:27:45.141Z,40.02
2022-08-16T14:32:53.134Z,39.77
2022-08-16T14:38:00.493Z,39.88
2022-08-16T14:43:08.614Z,40.78
2022-08-16T14:48:16.822Z,40.34
2022-08-16T14:53:25.742Z,39.36
2022-08-16T14:58:35.740Z,38.96
2022-08-16T15:03:44.008Z,39.04
2022-08-16T15:08:51.773Z,38.29
2022-08-16T15:15:37.805Z,37.58
2022-08-16T15:20:43.186Z,38.26
2022-08-16T15:25:50.630Z,38.72
2022-08-16T15:30:58.738Z,37.39
2022-08-16T15:36:06.916Z,36.61
2022-08-16T15:41:14.966Z,34.99
2022-08-16T15:46:22.549Z,34.36
2022-08-16T15:51:30.883Z,34.33
2022-08-16T15:56:41.143Z,33.92
2022-08-16T16:01:48.374Z,33.17
2022-08-16T16:06:55.697Z,32.71
2022-08-16T16:12:03.786Z,32.31
2022-08-16T16:17:11.217Z,31.8
2022-08-16T16:22:18.854Z,31.52
2022-08-16T16:27:26.609Z,31.44
2022-08-16T16:32:35.035Z,31.32
2022-08-16T16:37:43.195Z,31.08
2022-08-16T16:42:51.101Z,30.96
2022-08-16T16:47:59.718Z,30.75
2022-08-16T16:53:06.891Z,29.74
2022-08-16T16:58:13.343Z,28.6
2022-08-16T17:03:21.322Z,27.81
2022-08-16T17:08:50.822Z,27.31
2022-08-16T17:13:59.529Z,26.94
2022-08-16T17:19:06.460Z,26.7
2022-08-16T17:24:14.177Z,26.54
2022-08-16T17:29:22.173Z,26.54
2022-08-16T17:34:29.980Z,26.47
2022-08-16T17:39:38.592Z,26.42
2022-08-16T17:45:10.591Z,26.07
2022-08-16T17:45:18.245Z,26.07
2022-08-16T17:46:17.369Z,25.96
2022-08-16T17:51:23.697Z,25.5
2022-08-16T17:56:29.657Z,25.06
2022-08-16T18:01:37.436Z,24.58
2022-08-16T18:06:44.533Z,24.2
2022-08-16T18:11:51.506Z,24.1
2022-08-16T18:16:59.088Z,23.86
2022-08-16T18:22:06.973Z,23.48
2022-08-16T18:27:15.181Z,23.19
2022-08-16T18:32:23.135Z,22.93
2022-08-16T18:37:31.610Z,22.78
2022-08-16T18:42:40.400Z,22.71
2022-08-16T18:47:48.108Z,22.56
2022-08-16T18:53:05.550Z,22.49
2022-08-16T18:58:12.726Z,22.34
2022-08-16T19:03:19.985Z,22.21
2022-08-16T19:08:27.449Z,22.0
2022-08-16T19:13:35.881Z,21.88
2022-08-16T19:18:43.126Z,21.72
2022-08-16T19:23:51.375Z,21.56
2022-08-16T19:28:59.717Z,21.38
2022-08-16T19:34:06.300Z,21.44
2022-08-16T19:39:14.468Z,21.32
2022-08-16T19:44:23.130Z,21.19
2022-08-16T19:49:30.573Z,21.12
2022-08-16T19:54:38.006Z,21.14
2022-08-16T19:59:45.288Z,21.18
2022-08-16T20:04:52.096Z,21.14
2022-08-16T20:09:59.724Z,20.94
2022-08-16T20:15:06.491Z,20.83
2022-08-16T20:20:13.692Z,20.82
2022-08-16T20:25:20.216Z,20.9
2022-08-16T20:30:28.579Z,20.7
2022-08-16T20:35:35.292Z,20.67
2022-08-16T20:40:42.730Z,20.47
2022-08-16T20:45:50.870Z,20.15
2022-08-16T20:50:58.477Z,19.94
2022-08-16T20:56:06.967Z,19.88
2022-08-16T21:01:13.834Z,19.76
2022-08-16T21:06:21.690Z,19.62
2022-08-16T21:11:28.859Z,19.62
2022-08-16T21:16:35.398Z,19.56
2022-08-16T21:21:44.078Z,19.46
2022-08-16T21:26:52.646Z,19.35
2022-08-16T21:31:59.607Z,19.07
2022-08-16T21:37:07.645Z,18.84
2022-08-16T21:42:14.650Z,18.83
2022-08-16T21:47:21.208Z,18.76
2022-08-16T21:52:29.992Z,18.64
2022-08-16T21:57:39.281Z,18.74
2022-08-16T22:02:46.622Z,18.72
2022-08-16T22:07:54.461Z,18.61
2022-08-16T22:13:02.329Z,18.54
2022-08-16T22:18:09.033Z,18.47
2022-08-16T22:23:17.271Z,18.47
2022-08-16T22:28:26.151Z,18.33
2022-08-16T22:33:32.380Z,18.17
2022-08-16T22:38:40.047Z,18.38
2022-08-16T22:43:47.958Z,18.49
2022-08-16T22:48:56.399Z,18.56
2022-08-16T22:54:03.673Z,18.52
2022-08-16T22:59:11.521Z,18.48
2022-08-16T23:04:18.178Z,18.5
2022-08-16T23:09:25.333Z,18.4
2022-08-16T23:14:31.294Z,18.44
2022-08-16T23:19:39.388Z,18.3
2022-08-16T23:24:47.183Z,18.22
2022-08-16T23:29:54.717Z,18.18
2022-08-16T23:35:02.774Z,17.97
2022-08-16T23:40:10.485Z,18.04
2022-08-16T23:45:18.329Z,17.98
2022-08-16T23:50:26.287Z,17.88
2022-08-16T23:55:33.608Z,17.62
